Time;durP1;ratioP1;P1;durP2;ratioP2;P2;SDS_P1;SDS_P2;PMS_P1;PMS_P2;Temp;Humidity;BMP_temperature;BMP_pressure;BME280_temperature;BME280_humidity;BME280_pressure;Samples;Min_cycle;Max_cycle;Signal;HPM_P1;HPM_P2
2021/06/23 00:00:17;;;;;;;15.37;7.70;;;;;;;;;;5058366;28;20721;-75
2021/06/23 00:02:42;;;;;;;9.07;6.50;;;;;;;;;;5060880;28;20202;-74
2021/06/23 00:05:08;;;;;;;11.97;7.37;;;;;;;;;;5058043;28;20201;-73
2021/06/23 00:07:33;;;;;;;12.50;7.10;;;;;;;;;;5059331;28;20213;-74
2021/06/23 00:09:58;;;;;;;9.90;6.57;;;;;;;;;;5059033;28;20205;-75
2021/06/23 00:12:23;;;;;;;12.20;6.80;;;;;;;;;;5063817;28;20176;-74
2021/06/23 00:14:49;;;;;;;10.03;6.83;;;;;;;;;;5073141;28;20224;-74
2021/06/23 00:17:14;;;;;;;9.63;6.97;;;;;;;;;;5058389;28;20197;-74
2021/06/23 00:19:39;;;;;;;13.73;7.13;;;;;;;;;;5057599;28;20173;-73
2021/06/23 00:22:05;;;;;;;13.67;6.37;;;;;;;;;;5057115;28;20177;-73
2021/06/23 00:24:30;;;;;;;11.97;7.00;;;;;;;;;;5071456;28;20690;-74
2021/06/23 00:26:55;;;;;;;10.00;6.50;;;;;;;;;;5059246;28;20185;-74
2021/06/23 00:29:20;;;;;;;10.57;7.30;;;;;;;;;;5058885;28;20173;-74
2021/06/23 00:31:46;;;;;;;9.47;6.60;;;;;;;;;;5055922;28;20268;-74
2021/06/23 00:34:11;;;;;;;10.73;6.67;;;;;;;;;;5064926;28;20310;-74
2021/06/23 00:36:37;;;;;;;15.37;7.70;;;;;;;;;;5066839;28;20663;-74
2021/06/23 00:39:02;;;;;;;11.90;7.73;;;;;;;;;;5061977;28;20265;-73
2021/06/23 00:41:27;;;;;;;10.55;6.45;;;;;;;;;;5060672;28;20169;-73
2021/06/23 00:43:53;;;;;;;12.33;7.53;;;;;;;;;;5065343;28;20197;-74
2021/06/23 00:46:18;;;;;;;13.50;6.67;;;;;;;;;;5057368;28;20189;-73
2021/06/23 00:48:43;;;;;;;12.80;6.63;;;;;;;;;;5061069;28;20181;-73
2021/06/23 00:51:11;;;;;;;10.87;6.80;;;;;;;;;;5059152;28;20189;-73
2021/06/23 00:53:36;;;;;;;10.97;6.93;;;;;;;;;;5073006;28;20607;-73
2021/06/23 00:56:01;;;;;;;9.13;6.80;;;;;;;;;;5088376;28;20208;-73
2021/06/23 00:58:27;;;;;;;8.80;6.53;;;;;;;;;;5089673;28;20166;-73
2021/06/23 01:00:54;;;;;;;13.80;7.83;;;;;;;;;;5078290;28;20174;-72
2021/06/23 01:03:20;;;;;;;8.10;6.28;;;;;;;;;;5086384;28;20166;-72
2021/06/23 01:05:45;;;;;;;12.23;6.60;;;;;;;;;;5089845;28;20236;-72
2021/06/23 01:08:11;;;;;;;9.03;6.07;;;;;;;;;;5081297;28;20162;-73
2021/06/23 01:10:36;;;;;;;14.57;7.30;;;;;;;;;;5085429;28;20203;-72
2021/06/23 01:13:08;;;;;;;11.40;6.80;;;;;;;;;;5084009;28;20232;-72
2021/06/23 01:15:34;;;;;;;10.87;6.70;;;;;;;;;;5085940;28;20207;-72
2021/06/23 01:18:00;;;;;;;10.77;5.93;;;;;;;;;;5095308;28;20181;-72
2021/06/23 01:20:25;;;;;;;14.57;6.60;;;;;;;;;;5069867;28;20246;-73
2021/06/23 01:22:51;;;;;;;11.13;6.23;;;;;;;;;;5068198;28;20186;-73
2021/06/23 01:25:16;;;;;;;11.77;6.33;;;;;;;;;;5060210;28;21376;-73
2021/06/23 01:27:42;;;;;;;11.32;6.40;;;;;;;;;;5058000;28;20179;-73
2021/06/23 01:30:09;;;;;;;10.13;6.73;;;;;;;;;;5062160;28;20225;-73
2021/06/23 01:32:34;;;;;;;11.40;6.37;;;;;;;;;;5055409;28;20627;-73
2021/06/23 01:35:00;;;;;;;7.23;6.40;;;;;;;;;;5061470;28;20197;-73
2021/06/23 01:37:25;;;;;;;11.00;6.20;;;;;;;;;;5057689;28;20266;-73
2021/06/23 01:39:50;;;;;;;13.93;7.25;;;;;;;;;;5056262;28;20270;-73
2021/06/23 01:42:15;;;;;;;8.48;6.78;;;;;;;;;;5066366;28;20181;-73
2021/06/23 01:44:41;;;;;;;9.37;6.90;;;;;;;;;;5064635;28;20555;-73
2021/06/23 01:47:06;;;;;;;13.67;8.33;;;;;;;;;;5062109;28;20196;-73
2021/06/23 01:49:31;;;;;;;12.93;8.20;;;;;;;;;;5069624;28;20177;-73
2021/06/23 01:51:56;;;;;;;14.18;9.35;;;;;;;;;;5061184;28;20211;-73
2021/06/23 01:54:21;;;;;;;9.18;8.15;;;;;;;;;;5063299;28;20615;-73
2021/06/23 01:56:47;;;;;;;11.80;7.20;;;;;;;;;;5061993;28;20253;-74
2021/06/23 01:59:13;;;;;;;13.60;6.82;;;;;;;;;;5060555;28;20203;-73
2021/06/23 02:01:58;;;;;;;9.60;7.35;;;;;;;;;;5063618;28;20187;-74
2021/06/23 02:04:32;;;;;;;12.20;7.70;;;;;;;;;;5060128;28;20300;-74
2021/06/23 02:07:09;;;;;;;9.23;6.93;;;;;;;;;;5059148;28;20185;-74
2021/06/23 02:09:46;;;;;;;14.18;7.20;;;;;;;;;;5053205;28;20188;-74
2021/06/23 02:12:14;;;;;;;14.70;7.87;;;;;;;;;;5060877;28;20184;-75
2021/06/23 02:14:40;;;;;;;8.57;6.43;;;;;;;;;;5068450;28;20200;-75
2021/06/23 02:17:08;;;;;;;8.02;6.93;;;;;;;;;;5058619;28;20679;-74
2021/06/23 02:19:41;;;;;;;12.10;7.50;;;;;;;;;;5054968;28;20604;-75
2021/06/23 02:22:11;;;;;;;11.10;7.50;;;;;;;;;;5065375;28;20208;-75
2021/06/23 02:24:36;;;;;;;9.35;7.03;;;;;;;;;;5056704;28;20600;-74
2021/06/23 02:27:01;;;;;;;8.02;7.25;;;;;;;;;;5065918;28;20277;-74
2021/06/23 02:29:27;;;;;;;15.30;8.27;;;;;;;;;;5054050;28;20181;-74
2021/06/23 02:31:54;;;;;;;8.30;7.47;;;;;;;;;;5059515;28;20655;-75
2021/06/23 02:34:20;;;;;;;9.87;8.20;;;;;;;;;;5061596;28;20208;-74
2021/06/23 02:36:45;;;;;;;9.23;8.23;;;;;;;;;;5062387;28;20212;-74
2021/06/23 02:39:10;;;;;;;11.23;7.53;;;;;;;;;;5059679;28;20188;-75
2021/06/23 02:41:36;;;;;;;18.90;9.93;;;;;;;;;;5065470;28;20268;-75
2021/06/23 02:44:02;;;;;;;12.07;7.93;;;;;;;;;;5061051;28;20196;-75
2021/06/23 02:46:27;;;;;;;12.10;9.17;;;;;;;;;;5065343;28;20189;-75
2021/06/23 02:48:53;;;;;;;11.50;7.83;;;;;;;;;;5067103;28;20210;-75
2021/06/23 02:51:23;;;;;;;13.50;8.33;;;;;;;;;;5069274;28;20181;-75
2021/06/23 02:53:50;;;;;;;10.93;7.97;;;;;;;;;;5070256;28;20234;-75
2021/06/23 02:56:16;;;;;;;13.97;7.90;;;;;;;;;;5064092;28;20623;-75
2021/06/23 02:58:42;;;;;;;8.77;7.87;;;;;;;;;;5072309;28;20181;-75
2021/06/23 03:01:07;;;;;;;14.23;8.63;;;;;;;;;;5060940;28;20242;-75
2021/06/23 03:03:32;;;;;;;11.73;7.60;;;;;;;;;;5047034;28;20568;-75
2021/06/23 03:06:00;;;;;;;8.40;7.50;;;;;;;;;;5046604;28;20658;-74
2021/06/23 03:08:26;;;;;;;11.60;8.03;;;;;;;;;;5045426;28;20185;-75
2021/06/23 03:10:51;;;;;;;13.03;8.47;;;;;;;;;;5047040;28;20727;-74
2021/06/23 03:13:17;;;;;;;11.10;8.00;;;;;;;;;;5049705;28;20196;-75
2021/06/23 03:15:42;;;;;;;11.87;8.23;;;;;;;;;;5054618;28;20197;-75
2021/06/23 03:18:07;;;;;;;10.57;7.73;;;;;;;;;;5065564;28;20172;-75
2021/06/23 03:20:32;;;;;;;13.87;8.93;;;;;;;;;;5063562;28;20703;-75
2021/06/23 03:22:58;;;;;;;11.63;7.87;;;;;;;;;;5069479;28;20169;-75
2021/06/23 03:25:23;;;;;;;12.23;8.07;;;;;;;;;;5060135;28;20280;-76
2021/06/23 03:27:55;;;;;;;15.83;7.33;;;;;;;;;;5048536;28;20339;-75
2021/06/23 03:30:22;;;;;;;13.47;9.43;;;;;;;;;;5062805;28;20588;-76
2021/06/23 03:32:48;;;;;;;8.17;7.17;;;;;;;;;;5066002;28;20185;-76
2021/06/23 03:35:14;;;;;;;10.97;8.13;;;;;;;;;;5067675;28;20208;-76
2021/06/23 03:37:39;;;;;;;9.80;7.93;;;;;;;;;;5062527;28;20250;-76
2021/06/23 03:40:04;;;;;;;12.00;7.97;;;;;;;;;;5057415;28;20189;-76
2021/06/23 03:42:30;;;;;;;9.40;7.53;;;;;;;;;;5068094;28;20184;-76
2021/06/23 03:44:55;;;;;;;11.90;6.50;;;;;;;;;;5057755;28;20205;-76
2021/06/23 03:47:20;;;;;;;9.13;7.37;;;;;;;;;;5064591;28;20173;-76
2021/06/23 03:49:46;;;;;;;11.97;7.03;;;;;;;;;;5068292;28;20181;-76
2021/06/23 03:52:11;;;;;;;13.17;7.00;;;;;;;;;;5070913;28;20176;-75
2021/06/23 03:54:36;;;;;;;11.93;8.23;;;;;;;;;;5062805;28;20568;-76
2021/06/23 03:57:01;;;;;;;9.40;7.17;;;;;;;;;;5067996;28;20205;-76
2021/06/23 03:59:27;;;;;;;8.43;7.27;;;;;;;;;;5057504;28;20185;-76
2021/06/23 04:01:52;;;;;;;10.30;7.23;;;;;;;;;;5071081;28;20219;-76
2021/06/23 04:04:17;;;;;;;10.73;6.83;;;;;;;;;;5055843;28;20204;-76
2021/06/23 04:06:42;;;;;;;8.93;7.10;;;;;;;;;;5059192;28;20184;-76
2021/06/23 04:09:08;;;;;;;11.00;7.10;;;;;;;;;;5066765;28;20193;-76
2021/06/23 04:11:33;;;;;;;12.20;6.93;;;;;;;;;;5066254;28;20456;-76
2021/06/23 04:13:58;;;;;;;8.13;6.30;;;;;;;;;;5060026;28;20589;-76
2021/06/23 04:16:23;;;;;;;10.10;6.90;;;;;;;;;;5060737;28;20288;-76
2021/06/23 04:18:48;;;;;;;10.50;7.03;;;;;;;;;;5063129;28;20180;-76
2021/06/23 04:21:14;;;;;;;10.37;6.33;;;;;;;;;;5061423;28;20197;-76
2021/06/23 04:23:39;;;;;;;7.28;6.57;;;;;;;;;;5053519;28;20202;-76
2021/06/23 04:26:04;;;;;;;11.53;6.83;;;;;;;;;;5063409;28;20267;-76
2021/06/23 04:28:29;;;;;;;8.97;6.30;;;;;;;;;;5058016;28;20207;-76
2021/06/23 04:30:55;;;;;;;11.40;6.13;;;;;;;;;;5064012;28;20721;-76
2021/06/23 04:33:20;;;;;;;9.10;6.60;;;;;;;;;;5062786;28;20204;-75
2021/06/23 04:35:47;;;;;;;8.80;6.27;;;;;;;;;;5067419;28;20596;-76
2021/06/23 04:38:12;;;;;;;6.63;5.93;;;;;;;;;;5061747;28;20173;-76
2021/06/23 04:40:40;;;;;;;11.48;5.95;;;;;;;;;;5065451;28;20211;-76
2021/06/23 04:43:05;;;;;;;10.15;6.47;;;;;;;;;;5057604;28;20646;-76
2021/06/23 04:45:30;;;;;;;10.20;6.95;;;;;;;;;;5071003;28;20213;-75
2021/06/23 04:47:55;;;;;;;7.30;6.07;;;;;;;;;;5061434;28;20213;-75
2021/06/23 04:50:21;;;;;;;8.38;6.05;;;;;;;;;;5066163;28;20607;-76
2021/06/23 04:52:46;;;;;;;10.25;5.97;;;;;;;;;;5072928;28;20186;-75
2021/06/23 04:55:16;;;;;;;13.52;6.72;;;;;;;;;;5069084;28;20207;-75
2021/06/23 04:57:41;;;;;;;8.10;6.22;;;;;;;;;;5063174;28;20589;-75
2021/06/23 05:00:07;;;;;;;9.85;6.35;;;;;;;;;;5053777;28;20234;-75
2021/06/23 05:02:32;;;;;;;10.20;7.22;;;;;;;;;;5056424;28;20176;-75
2021/06/23 05:04:57;;;;;;;13.40;6.88;;;;;;;;;;5063462;28;20201;-75
2021/06/23 05:07:22;;;;;;;10.75;6.65;;;;;;;;;;5061007;28;20547;-75
2021/06/23 05:09:47;;;;;;;10.10;6.90;;;;;;;;;;5064646;28;20626;-75
2021/06/23 05:12:14;;;;;;;10.80;6.43;;;;;;;;;;5071787;28;20650;-75
2021/06/23 05:14:39;;;;;;;11.88;6.95;;;;;;;;;;5063054;28;20284;-75
2021/06/23 05:17:04;;;;;;;11.65;6.65;;;;;;;;;;5074642;28;20737;-74
2021/06/23 05:19:30;;;;;;;9.48;6.95;;;;;;;;;;5089640;28;20233;-74
2021/06/23 05:21:58;;;;;;;8.65;7.47;;;;;;;;;;5091356;28;20185;-74
2021/06/23 05:24:23;;;;;;;10.30;6.45;;;;;;;;;;5081067;28;20178;-74
2021/06/23 05:26:48;;;;;;;13.05;7.93;;;;;;;;;;5090167;28;20185;-74
2021/06/23 05:29:13;;;;;;;11.20;7.53;;;;;;;;;;5084928;28;20165;-73
2021/06/23 05:31:39;;;;;;;9.35;6.80;;;;;;;;;;5085437;28;20177;-73
2021/06/23 05:34:04;;;;;;;9.20;7.00;;;;;;;;;;5085570;28;20205;-73
2021/06/23 05:36:29;;;;;;;12.40;6.32;;;;;;;;;;5089577;28;20189;-73
2021/06/23 05:38:54;;;;;;;10.32;7.32;;;;;;;;;;5091508;28;20181;-73
2021/06/23 05:41:20;;;;;;;9.85;6.78;;;;;;;;;;5085063;28;20246;-74
2021/06/23 05:43:45;;;;;;;12.48;6.93;;;;;;;;;;5069047;28;20307;-74
2021/06/23 05:46:10;;;;;;;9.02;7.78;;;;;;;;;;5059118;28;20247;-74
2021/06/23 05:48:35;;;;;;;12.13;6.75;;;;;;;;;;5063948;28;20173;-75
2021/06/23 05:51:01;;;;;;;9.60;6.10;;;;;;;;;;5057664;28;20239;-75
2021/06/23 05:53:26;;;;;;;10.45;6.55;;;;;;;;;;5062946;28;20633;-74
2021/06/23 05:55:54;;;;;;;8.25;7.18;;;;;;;;;;5057572;28;20205;-74
2021/06/23 05:58:20;;;;;;;8.23;6.72;;;;;;;;;;5067894;28;20223;-74
2021/06/23 06:00:45;;;;;;;7.68;5.88;;;;;;;;;;5055335;28;20172;-75
2021/06/23 06:03:10;;;;;;;8.25;6.25;;;;;;;;;;5065094;28;20169;-74
2021/06/23 06:05:35;;;;;;;14.15;8.18;;;;;;;;;;5063190;28;20174;-74
2021/06/23 06:08:01;;;;;;;7.82;6.35;;;;;;;;;;5066452;28;20184;-74
2021/06/23 06:10:27;;;;;;;15.18;7.07;;;;;;;;;;5063325;28;20189;-74
2021/06/23 06:12:52;;;;;;;9.38;6.45;;;;;;;;;;5063179;28;20188;-74
2021/06/23 06:15:17;;;;;;;9.52;6.40;;;;;;;;;;5061316;28;20595;-74
2021/06/23 06:17:42;;;;;;;11.75;7.47;;;;;;;;;;5054640;28;20177;-74
2021/06/23 06:20:08;;;;;;;9.95;6.32;;;;;;;;;;5066446;28;20177;-74
2021/06/23 06:22:33;;;;;;;9.65;7.05;;;;;;;;;;5060110;28;20187;-74
2021/06/23 06:24:59;;;;;;;12.40;6.22;;;;;;;;;;5064815;28;20197;-73
2021/06/23 06:27:24;;;;;;;7.63;5.60;;;;;;;;;;5066504;28;20222;-74
2021/06/23 06:29:50;;;;;;;10.43;5.47;;;;;;;;;;5065133;28;20234;-74
2021/06/23 06:32:15;;;;;;;10.02;5.25;;;;;;;;;;5060758;28;20196;-74
2021/06/23 06:34:40;;;;;;;6.15;5.03;;;;;;;;;;5068298;28;20220;-74
2021/06/23 06:37:05;;;;;;;10.00;5.20;;;;;;;;;;5062840;28;20264;-74
2021/06/23 06:39:30;;;;;;;5.97;4.78;;;;;;;;;;5065137;28;20373;-74
2021/06/23 06:41:56;;;;;;;12.10;5.05;;;;;;;;;;5058533;28;20265;-74
2021/06/23 06:44:21;;;;;;;9.77;5.95;;;;;;;;;;5068345;28;20216;-74
2021/06/23 06:46:46;;;;;;;7.28;3.85;;;;;;;;;;5063991;28;20285;-74
2021/06/23 06:49:12;;;;;;;7.22;2.58;;;;;;;;;;5065268;28;20260;-73
2021/06/23 06:51:37;;;;;;;4.70;2.45;;;;;;;;;;5065110;28;20176;-74
2021/06/23 06:54:02;;;;;;;7.30;2.53;;;;;;;;;;5059773;28;20196;-73
2021/06/23 06:56:27;;;;;;;7.10;2.85;;;;;;;;;;5067419;28;20232;-73
2021/06/23 06:58:53;;;;;;;4.72;2.20;;;;;;;;;;5056563;28;20715;-73
2021/06/23 07:01:18;;;;;;;5.32;2.35;;;;;;;;;;5064556;28;20661;-73
2021/06/23 07:03:43;;;;;;;5.45;2.80;;;;;;;;;;5069515;28;20247;-74
2021/06/23 07:06:08;;;;;;;5.68;2.40;;;;;;;;;;5064143;28;20661;-73
2021/06/23 07:08:34;;;;;;;7.00;2.60;;;;;;;;;;5056846;28;20185;-73
2021/06/23 07:10:59;;;;;;;5.53;2.90;;;;;;;;;;5058901;28;20669;-74
2021/06/23 07:13:24;;;;;;;7.45;2.33;;;;;;;;;;5058680;28;21970;-73
2021/06/23 07:15:49;;;;;;;6.45;2.53;;;;;;;;;;5055277;28;20238;-74
2021/06/23 07:18:15;;;;;;;4.80;2.10;;;;;;;;;;5057366;28;20223;-73
2021/06/23 07:20:40;;;;;;;7.68;2.53;;;;;;;;;;5056263;28;20413;-73
2021/06/23 07:23:05;;;;;;;5.47;2.20;;;;;;;;;;5056387;28;20177;-73
2021/06/23 07:25:30;;;;;;;5.32;2.00;;;;;;;;;;5055407;28;20220;-74
2021/06/23 07:27:55;;;;;;;6.32;1.77;;;;;;;;;;5059874;28;20173;-73
2021/06/23 07:30:21;;;;;;;7.30;1.92;;;;;;;;;;5056847;28;20172;-71
2021/06/23 07:32:50;;;;;;;3.83;1.60;;;;;;;;;;5061555;28;20176;-71
2021/06/23 07:38:00;;;;;;;6.50;1.80;;;;;;;;;;5061590;28;20219;-71
2021/06/23 07:40:43;;;;;;;5.45;1.90;;;;;;;;;;5059442;28;20243;-72
2021/06/23 07:43:09;;;;;;;6.05;2.08;;;;;;;;;;5061832;28;20194;-71
2021/06/23 07:45:36;;;;;;;6.43;2.05;;;;;;;;;;5064853;28;20177;-74
2021/06/23 07:48:01;;;;;;;6.85;2.10;;;;;;;;;;5065896;28;20197;-71
2021/06/23 07:50:33;;;;;;;7.05;1.95;;;;;;;;;;5059694;28;20220;-72
2021/06/23 07:53:08;;;;;;;5.90;1.85;;;;;;;;;;5062225;28;20258;-71
2021/06/23 07:55:47;;;;;;;8.00;2.45;;;;;;;;;;5045913;28;20175;-72
2021/06/23 08:09:17;;;;;;;7.20;2.40;;;;;;;;;;5056351;28;20192;-74
2021/06/23 08:11:46;;;;;;;7.47;2.05;;;;;;;;;;5065882;28;20177;-72
2021/06/23 08:14:11;;;;;;;6.00;2.03;;;;;;;;;;5068857;28;20201;-73
2021/06/23 08:16:36;;;;;;;8.68;2.45;;;;;;;;;;5070646;28;20211;-72
2021/06/23 08:19:02;;;;;;;5.75;2.53;;;;;;;;;;5072754;28;20474;-72
2021/06/23 08:21:27;;;;;;;8.95;2.28;;;;;;;;;;5065216;28;20288;-73
2021/06/23 08:23:53;;;;;;;6.93;2.65;;;;;;;;;;5068288;28;20197;-72
2021/06/23 08:26:18;;;;;;;7.28;2.20;;;;;;;;;;5064643;28;20188;-72
2021/06/23 08:28:44;;;;;;;5.22;2.60;;;;;;;;;;5066037;28;20177;-72
2021/06/23 08:31:09;;;;;;;9.80;2.17;;;;;;;;;;5048507;28;20571;-72
2021/06/23 08:33:35;;;;;;;7.22;2.28;;;;;;;;;;5063047;28;20205;-73
2021/06/23 08:36:00;;;;;;;4.55;2.20;;;;;;;;;;5053659;28;20205;-72
2021/06/23 08:38:25;;;;;;;8.15;2.50;;;;;;;;;;5052519;28;20201;-72
2021/06/23 08:40:50;;;;;;;11.63;2.65;;;;;;;;;;5062697;28;20565;-72
2021/06/23 08:43:16;;;;;;;6.63;1.80;;;;;;;;;;5055813;28;20180;-72
2021/06/23 08:45:42;;;;;;;4.07;2.20;;;;;;;;;;5052495;28;21394;-72
2021/06/23 08:48:07;;;;;;;8.38;2.22;;;;;;;;;;5057363;28;20184;-72
2021/06/23 08:50:33;;;;;;;5.63;2.10;;;;;;;;;;5057626;28;20186;-72
2021/06/23 08:52:58;;;;;;;8.68;2.30;;;;;;;;;;5051186;28;20176;-72
2021/06/23 08:55:23;;;;;;;8.90;3.00;;;;;;;;;;5054979;28;20207;-72
2021/06/23 08:57:49;;;;;;;5.47;2.42;;;;;;;;;;5053200;28;20657;-72
2021/06/23 09:00:15;;;;;;;4.32;1.98;;;;;;;;;;5055173;28;20169;-72
2021/06/23 09:02:40;;;;;;;6.60;2.10;;;;;;;;;;5050915;28;20181;-72
2021/06/23 09:05:07;;;;;;;7.90;2.15;;;;;;;;;;5052604;28;20245;-72
2021/06/23 09:07:49;;;;;;;4.97;1.92;;;;;;;;;;5051948;28;20653;-72
2021/06/23 09:10:20;;;;;;;5.38;1.90;;;;;;;;;;5052470;28;20254;-72
2021/06/23 09:13:01;;;;;;;3.92;1.52;;;;;;;;;;5053643;28;20259;-71
2021/06/23 09:15:38;;;;;;;11.10;2.40;;;;;;;;;;5057434;28;20180;-72
2021/06/23 09:18:10;;;;;;;7.07;1.90;;;;;;;;;;5052504;28;20236;-72
2021/06/23 09:20:36;;;;;;;5.65;2.00;;;;;;;;;;5057034;28;20165;-72
2021/06/23 09:23:01;;;;;;;6.72;1.95;;;;;;;;;;5051967;28;20193;-72
2021/06/23 09:25:27;;;;;;;6.20;2.23;;;;;;;;;;5057626;28;20177;-72
2021/06/23 09:27:53;;;;;;;6.38;1.90;;;;;;;;;;5050954;28;20427;-73
2021/06/23 09:30:35;;;;;;;5.38;1.70;;;;;;;;;;5059609;28;20185;-73
2021/06/23 09:33:04;;;;;;;9.25;2.40;;;;;;;;;;5051667;28;20203;-72
2021/06/23 09:35:29;;;;;;;10.75;1.90;;;;;;;;;;5060576;28;20262;-74
2021/06/23 09:37:54;;;;;;;5.97;1.90;;;;;;;;;;5053305;28;20819;-73
2021/06/23 09:40:21;;;;;;;7.20;1.85;;;;;;;;;;5056528;28;20196;-74
2021/06/23 09:42:48;;;;;;;4.90;2.03;;;;;;;;;;5058712;28;20173;-74
2021/06/23 09:45:14;;;;;;;10.10;1.92;;;;;;;;;;5053225;28;20271;-74
2021/06/23 09:47:39;;;;;;;6.78;2.63;;;;;;;;;;5053781;28;20599;-74
2021/06/23 09:50:06;;;;;;;7.75;2.15;;;;;;;;;;5056140;28;20208;-73
2021/06/23 09:52:33;;;;;;;12.40;2.75;;;;;;;;;;5067412;28;20547;-74
2021/06/23 09:55:00;;;;;;;4.70;1.67;;;;;;;;;;5052218;28;20196;-73
2021/06/23 09:57:25;;;;;;;5.57;2.30;;;;;;;;;;5083193;28;20208;-73
2021/06/23 09:59:55;;;;;;;6.75;1.80;;;;;;;;;;5090665;28;20192;-73
2021/06/23 10:02:26;;;;;;;4.45;1.92;;;;;;;;;;5084552;28;20376;-73
2021/06/23 10:04:52;;;;;;;9.43;2.40;;;;;;;;;;5078796;28;20202;-73
2021/06/23 10:07:48;;;;;;;5.90;1.77;;;;;;;;;;5086424;28;20204;-73
2021/06/23 10:10:17;;;;;;;9.10;2.08;;;;;;;;;;5076968;28;20240;-72
2021/06/23 10:12:43;;;;;;;6.47;2.08;;;;;;;;;;5081344;28;20188;-73
2021/06/23 10:15:08;;;;;;;4.68;2.28;;;;;;;;;;5079645;28;20244;-72
2021/06/23 10:17:34;;;;;;;3.65;1.70;;;;;;;;;;5082335;28;20209;-72
2021/06/23 10:20:00;;;;;;;7.47;2.00;;;;;;;;;;5079423;28;20258;-72
2021/06/23 10:22:25;;;;;;;5.43;1.70;;;;;;;;;;5063055;28;20575;-73
2021/06/23 10:24:52;;;;;;;6.47;2.08;;;;;;;;;;5053046;28;20216;-73
2021/06/23 10:27:19;;;;;;;6.25;2.13;;;;;;;;;;5058446;28;20199;-73
2021/06/23 10:29:45;;;;;;;8.13;1.80;;;;;;;;;;5049698;28;20239;-73
2021/06/23 10:32:11;;;;;;;10.27;2.25;;;;;;;;;;5052631;28;20677;-73
2021/06/23 10:34:36;;;;;;;9.30;1.90;;;;;;;;;;5050665;28;20731;-72
2021/06/23 10:37:01;;;;;;;6.50;2.17;;;;;;;;;;5049790;28;20461;-73
2021/06/23 10:39:31;;;;;;;5.22;1.77;;;;;;;;;;5060072;28;20199;-73
2021/06/23 10:41:58;;;;;;;8.60;2.50;;;;;;;;;;5052950;28;20191;-73
2021/06/23 10:44:27;;;;;;;5.80;2.03;;;;;;;;;;5053304;28;20815;-75
2021/06/23 10:46:57;;;;;;;4.22;1.70;;;;;;;;;;5050586;28;20727;-73
2021/06/23 10:49:41;;;;;;;7.70;3.03;;;;;;;;;;5051660;28;20326;-74
2021/06/23 10:52:21;;;;;;;9.50;2.35;;;;;;;;;;5062035;28;20336;-72
2021/06/23 10:54:47;;;;;;;6.18;2.45;;;;;;;;;;5055362;28;20587;-73
2021/06/23 10:57:29;;;;;;;7.43;2.63;;;;;;;;;;5055380;28;20205;-73
2021/06/23 10:59:56;;;;;;;7.97;2.22;;;;;;;;;;5051266;28;20665;-72
2021/06/23 11:02:29;;;;;;;6.57;2.22;;;;;;;;;;5052066;28;20181;-72
2021/06/23 11:04:57;;;;;;;3.15;1.60;;;;;;;;;;5053582;28;20209;-72
2021/06/23 11:07:34;;;;;;;4.38;2.10;;;;;;;;;;5055240;28;20186;-73
2021/06/23 11:10:27;;;;;;;3.65;2.00;;;;;;;;;;5057327;28;20192;-72
2021/06/23 11:13:00;;;;;;;5.68;2.05;;;;;;;;;;5049888;28;20189;-73
2021/06/23 11:15:25;;;;;;;4.07;2.20;;;;;;;;;;5061764;28;20209;-72
2021/06/23 11:17:52;;;;;;;7.57;2.40;;;;;;;;;;5054601;28;20697;-72
2021/06/23 11:20:20;;;;;;;7.78;2.20;;;;;;;;;;5055010;28;20185;-72
2021/06/23 11:22:45;;;;;;;7.68;2.10;;;;;;;;;;5058152;28;20504;-72
2021/06/23 11:25:19;;;;;;;4.63;2.35;;;;;;;;;;5055230;28;20213;-72
2021/06/23 11:27:44;;;;;;;6.18;1.92;;;;;;;;;;5059788;28;20259;-72
2021/06/23 11:30:30;;;;;;;10.40;2.67;;;;;;;;;;5059751;28;20211;-72
2021/06/23 11:32:55;;;;;;;4.18;2.22;;;;;;;;;;5055344;28;20197;-72
2021/06/23 11:35:20;;;;;;;3.30;1.67;;;;;;;;;;5062022;28;20209;-72
2021/06/23 11:37:45;;;;;;;5.95;2.22;;;;;;;;;;5051923;28;20216;-73
2021/06/23 11:40:13;;;;;;;4.27;2.20;;;;;;;;;;5056024;28;20268;-72
2021/06/23 11:42:38;;;;;;;5.30;2.17;;;;;;;;;;5058516;28;20417;-73
2021/06/23 11:45:04;;;;;;;7.65;2.15;;;;;;;;;;5053820;28;20446;-73
2021/06/23 11:47:29;;;;;;;5.55;1.65;;;;;;;;;;5053918;28;20177;-73
2021/06/23 11:49:54;;;;;;;8.55;2.85;;;;;;;;;;5055108;28;20185;-72
2021/06/23 11:52:20;;;;;;;8.38;2.40;;;;;;;;;;5057810;28;20276;-72
2021/06/23 11:54:45;;;;;;;5.65;2.40;;;;;;;;;;5055727;28;20556;-72
2021/06/23 11:57:11;;;;;;;4.73;2.03;;;;;;;;;;5054689;28;20304;-72
2021/06/23 11:59:36;;;;;;;2.78;1.88;;;;;;;;;;5056234;28;20430;-73
2021/06/23 12:02:02;;;;;;;6.28;1.95;;;;;;;;;;5058008;28;20269;-72
2021/06/23 12:04:28;;;;;;;5.57;1.80;;;;;;;;;;5054843;28;20668;-74
2021/06/23 12:06:54;;;;;;;7.38;1.88;;;;;;;;;;5062503;28;20256;-73
2021/06/23 12:09:19;;;;;;;5.13;1.67;;;;;;;;;;5060917;28;20650;-73
2021/06/23 12:11:44;;;;;;;4.10;1.75;;;;;;;;;;5053278;28;20204;-73
2021/06/23 12:14:10;;;;;;;5.32;1.83;;;;;;;;;;5053844;28;20205;-73
2021/06/23 12:16:35;;;;;;;4.68;1.73;;;;;;;;;;5059938;28;20205;-73
2021/06/23 12:19:00;;;;;;;4.77;1.57;;;;;;;;;;5053684;28;20233;-73
2021/06/23 12:21:25;;;;;;;5.93;1.85;;;;;;;;;;5054541;28;20798;-73
2021/06/23 12:23:50;;;;;;;6.97;2.00;;;;;;;;;;5054735;28;20217;-73
2021/06/23 12:26:22;;;;;;;4.93;1.83;;;;;;;;;;5056442;28;20430;-73
2021/06/23 12:28:47;;;;;;;3.22;1.52;;;;;;;;;;5055492;28;20363;-73
2021/06/23 12:31:12;;;;;;;3.70;1.80;;;;;;;;;;5058779;28;20761;-73
2021/06/23 12:33:37;;;;;;;7.83;2.27;;;;;;;;;;5053627;28;20548;-74
2021/06/23 12:36:02;;;;;;;3.40;1.87;;;;;;;;;;5054364;28;20460;-73
2021/06/23 12:38:29;;;;;;;4.15;1.60;;;;;;;;;;5051728;28;20421;-73
2021/06/23 12:40:54;;;;;;;5.45;1.92;;;;;;;;;;5053776;28;20213;-74
2021/06/23 12:43:20;;;;;;;5.53;2.00;;;;;;;;;;5053088;28;20665;-74
2021/06/23 12:45:50;;;;;;;4.30;1.83;;;;;;;;;;5062676;28;20665;-73
2021/06/23 12:48:16;;;;;;;7.00;2.00;;;;;;;;;;5058996;28;20235;-73
2021/06/23 12:50:41;;;;;;;3.87;1.93;;;;;;;;;;5053217;28;20903;-73
2021/06/23 12:53:06;;;;;;;5.07;1.70;;;;;;;;;;5056174;28;20472;-73
2021/06/23 12:55:32;;;;;;;6.65;2.25;;;;;;;;;;5053436;28;20177;-73
2021/06/23 12:57:57;;;;;;;4.35;2.15;;;;;;;;;;5052454;28;20193;-73
2021/06/23 13:00:23;;;;;;;5.75;2.03;;;;;;;;;;5062621;28;20168;-72
2021/06/23 13:02:49;;;;;;;3.40;1.90;;;;;;;;;;5055137;28;20559;-72
2021/06/23 13:05:15;;;;;;;8.63;2.67;;;;;;;;;;5053198;28;20262;-72
2021/06/23 13:07:40;;;;;;;4.70;2.05;;;;;;;;;;5051217;28;20190;-72
2021/06/23 13:10:07;;;;;;;4.25;1.85;;;;;;;;;;5053464;28;20588;-73
2021/06/23 13:12:32;;;;;;;8.13;2.28;;;;;;;;;;5055867;28;20226;-72
2021/06/23 13:14:58;;;;;;;3.45;1.92;;;;;;;;;;5049997;28;20651;-72
2021/06/23 13:17:24;;;;;;;6.93;1.95;;;;;;;;;;5054589;28;20211;-72
2021/06/23 13:19:49;;;;;;;4.70;1.77;;;;;;;;;;5048873;28;20641;-72
2021/06/23 13:22:14;;;;;;;3.53;1.60;;;;;;;;;;5055538;28;20189;-72
2021/06/23 13:24:39;;;;;;;4.10;2.10;;;;;;;;;;5053675;28;20868;-73
2021/06/23 13:27:05;;;;;;;4.70;1.88;;;;;;;;;;5052022;28;20195;-72
2021/06/23 13:29:30;;;;;;;4.40;1.75;;;;;;;;;;5052433;28;20289;-72
2021/06/23 13:31:55;;;;;;;3.58;1.52;;;;;;;;;;5054794;28;20188;-72
2021/06/23 13:34:21;;;;;;;8.27;2.40;;;;;;;;;;5053753;28;20200;-72
2021/06/23 13:36:46;;;;;;;4.00;2.40;;;;;;;;;;5057519;28;20641;-72
2021/06/23 13:39:11;;;;;;;4.30;2.00;;;;;;;;;;5059540;28;20172;-71
2021/06/23 13:41:37;;;;;;;2.63;1.73;;;;;;;;;;5053115;28;20178;-72
2021/06/23 13:44:02;;;;;;;3.28;1.75;;;;;;;;;;5051106;28;21370;-73
2021/06/23 13:46:28;;;;;;;5.53;1.83;;;;;;;;;;5064417;28;20526;-72
2021/06/23 13:48:53;;;;;;;4.33;1.70;;;;;;;;;;5051728;28;20689;-72
2021/06/23 13:51:18;;;;;;;3.10;1.70;;;;;;;;;;5059381;28;20522;-72
2021/06/23 13:53:43;;;;;;;4.50;1.70;;;;;;;;;;5058931;28;20445;-72
2021/06/23 13:56:08;;;;;;;3.67;1.48;;;;;;;;;;5050767;28;20464;-72
2021/06/23 13:58:34;;;;;;;4.40;1.70;;;;;;;;;;5051691;28;20184;-72
2021/06/23 14:00:59;;;;;;;4.40;1.70;;;;;;;;;;5054139;28;21038;-73
2021/06/23 14:03:24;;;;;;;2.90;1.65;;;;;;;;;;5051778;28;20542;-72
2021/06/23 14:05:53;;;;;;;2.40;1.33;;;;;;;;;;5049194;28;20676;-72
2021/06/23 14:08:19;;;;;;;2.13;1.10;;;;;;;;;;5050428;28;20450;-72
2021/06/23 14:10:44;;;;;;;4.07;1.58;;;;;;;;;;5053345;28;20271;-72
2021/06/23 14:13:09;;;;;;;3.55;1.65;;;;;;;;;;5048858;28;20330;-72
2021/06/23 14:15:35;;;;;;;4.25;1.50;;;;;;;;;;5054541;28;20542;-72
2021/06/23 14:18:00;;;;;;;4.57;1.77;;;;;;;;;;5051714;28;20172;-72
2021/06/23 14:20:27;;;;;;;4.60;1.77;;;;;;;;;;5055426;28;20173;-72
2021/06/23 14:22:52;;;;;;;5.13;1.48;;;;;;;;;;5050890;28;20649;-72
2021/06/23 14:25:17;;;;;;;5.70;1.80;;;;;;;;;;5056975;28;20205;-72
2021/06/23 14:27:44;;;;;;;3.80;1.33;;;;;;;;;;5054633;28;20230;-73
2021/06/23 14:30:11;;;;;;;2.40;1.50;;;;;;;;;;5070789;28;20181;-71
2021/06/23 14:32:36;;;;;;;4.68;1.88;;;;;;;;;;5080123;28;20196;-71
2021/06/23 14:35:01;;;;;;;3.97;1.80;;;;;;;;;;5078883;28;20204;-72
2021/06/23 14:37:27;;;;;;;2.85;1.50;;;;;;;;;;5075808;28;20206;-72
2021/06/23 14:39:52;;;;;;;3.63;2.00;;;;;;;;;;5088704;28;20188;-71
2021/06/23 14:42:17;;;;;;;5.15;1.80;;;;;;;;;;5090753;28;20426;-72
2021/06/23 14:44:42;;;;;;;3.80;1.52;;;;;;;;;;5085085;28;21662;-71
2021/06/23 14:47:08;;;;;;;2.15;1.15;;;;;;;;;;5087253;28;20240;-71